LIMJLIPR

Guest
Details From LIMJ - Genova Sestri
To LIPR - Rimini Mil
Flight Number -
Tags Generated
Created
Modified
Stats Distance 164 nm / 304 km
Max Altitude 0 ft / 0 m
Waypoints 2
Social Downloads 0
Likes 0
Share VATSIM

Download

Looking for another format? Having issues loading an existing format? Contact us
Advertisement - Login to hide

Notes

Generated

Route

LIMJ LIPR

ID Type Via Altitude Latitude Longitude Leg Dist Tot Dist Heading (true) Name
O LIMJ APT - 0 ft / 0 m 44.41542˚ 8.82419˚ - 0 nm - -
O LIPR APT - 0 ft / 0 m 44.02853˚ 12.59696˚ 164 nm 164 nm 97° / 99° -

Altitude Profile

Advertisement - Login to hide

Weather


0- 5 10 15 20 25 30 35+ Temperature / ° C

Clouds and Precipitation
Forecast for 2017-12-12 12:00 UTC. Updated an hour ago

Ground ~20,000 ft ~40,000 ft Winds

LIMJ

Details ICAO LIMJ (GOA)
Name Genova Sestri
Region Italy
Timezone Unknown (UTC+0.0)
Stats Elevation 13 ft / 4 m (AMSL)
Location 44.411957° 8.841866°
Runways 1
Magnetic Variation 2.387° E

METAR

LIMJ 121150Z 16006KT 9999 SCT030 BKN045 13/09 Q1010

Decode

TAF

TAF LIMJ 121100Z 1212/1312 21010KT 9999 BKN030 PROB40 TEMPO 1212/1216 21010G20KT BECMG 1219/1221 02006KT

Decode

Departure Runways

ID Width Length Bearing (true) Bearing (mag) Surface Threshold Offset Overrun Length
10 148 ft / 45 m 9,574 ft / 2,918 m 105.39° 103.00° Asphalt 0 ft / 0 m 0 ft / 0 m
28 148 ft / 45 m 9,574 ft / 2,918 m 285.41° 283.02° Asphalt 538 ft / 164 m 0 ft / 0 m

LIPR

Details ICAO LIPR (RMI)
Name Rimini Mil
Region Italy
Timezone Europe/Rome (UTC+1.0)
Stats Elevation 41 ft / 12 m (AMSL)
Location 44.020286° 12.611746°
Runways 1
Magnetic Variation 3.166° E

METAR

LIPR 121145Z 00000KT 7000 -RA FEW030 SCT040 12/11 Q1011 RMK BKN VIS MIN 7000 WIND THR31 00000KT WHT

Decode

TAF

Not found

Destination Runways

ID Width Length Bearing (true) Bearing (mag) Surface Threshold Offset Overrun Length
13 148 ft / 45 m 9,818 ft / 2,992 m 127.79° 124.62° Asphalt 1,030 ft / 314 m 846 ft / 258 m
31 148 ft / 45 m 9,818 ft / 2,992 m 307.81° 304.64° Asphalt 1,006 ft / 307 m 376 ft / 115 m

Approach Navaids

Runway Type Ident Frequency Range Bearing (true) Bearing (mag) Slope Elevation
31 Localiser MIR 109.30 MHz 18 nm / 33 km 307.77° 304.60° - 41 ft / 12 m (AMSL)
31 Glidescope MIR 109.30 MHz 10 nm / 19 km 307.80° 304.63° 3.00° 41 ft / 12 m (AMSL)

Popular Alternatives